Gaz Palmyra — 3FCO4 — position and weather

sailwx.info

Track history (hours):
 
Tides and Currents Weather Stations Pressure Air Temp Water Temp Dewpoint Dewpoint Depression Visibility Wind Speed Wind Dir Waves Ship Positions

Gaz Palmyra

Last reported at 2015-Jun-28 09:17 UTC. Time now 2015-Jul-01 23:15 UTC.
Position N 36°46' E 003°05'.

Length 137 m; draft 8.1 m.

Type: Ship (hazmat cat C). MMSI: 353247000.

Date/timePositionNaut miles runAvg speedWind from/ knotsBaromVisibWave heightAir tempDewpointWater temp
2015-Jun-28 09:17N 36°46' E 003°05'49 8.5
2015-Jun-28 03:28N 36°50' E 002°03'1112.0
2015-Jun-28 02:33N 36°48' E 001°50'1312.2
2015-Jun-28 01:30N 36°47' E 001°34'1111.8
2015-Jun-28 00:33N 36°46' E 001°20'1211.8
2015-Jun-27 23:33N 36°45' E 001°05'1212.1
2015-Jun-27 22:32N 36°41' E 000°51'1212.0
2015-Jun-27 21:33N 36°36' E 000°38'10 9.7
2015-Jun-27 20:33N 36°29' E 000°29'5 5.2
2015-Jun-27 19:33N 36°25' E 000°25'1211.9
2015-Jun-27 18:33N 36°16' E 000°15'1212.1
2015-Jun-27 17:33N 36°07' E 000°05'1211.6
2015-Jun-27 16:33N 35°58' W 000°04'1010.4
2015-Jun-27 15:33N 35°50' W 000°12'3 0.1
2015-Jun-26 15:33N 35°49' W 000°15'3 2.9
2015-Jun-26 14:34N 35°51' W 000°13'2 1.8
2015-Jun-26 13:33N 35°52' W 000°11'2 2.4
2015-Jun-26 12:33N 35°54' W 000°10'2 1.6
2015-Jun-26 11:33N 35°56' W 000°09'3 2.8
2015-Jun-26 10:33N 35°58' W 000°07'1 0.8
2015-Jun-26 09:33N 35°59' W 000°07'1 0.6
2015-Jun-26 08:33N 35°59' W 000°07'1 0.5
2015-Jun-26 07:24N 35°60' W 000°07'1 0.8
2015-Jun-26 06:33N 36°00' W 000°08'8 8.2
2015-Jun-26 05:32N 36°06' W 000°01'1010.6
2015-Jun-26 04:33N 36°13' E 000°09'1110.7
2015-Jun-26 03:34N 36°20' E 000°19'1110.6
2015-Jun-26 02:33N 36°28' E 000°28'1010.2
2015-Jun-26 01:33N 36°34' E 000°38'1010.5
2015-Jun-26 00:34N 36°39' E 000°49'1110.9
2015-Jun-25 23:33N 36°45' E 001°01'1111.3
2015-Jun-25 22:33N 36°46' E 001°15'1111.4
2015-Jun-25 21:33N 36°47' E 001°29'3611.0
2015-Jun-25 18:16N 36°50' E 002°14'2011.0
2015-Jun-25 16:27N 36°52' E 002°39'1210.6
2015-Jun-25 15:22N 36°53' E 002°53'  
2015-Jun-22 05:21N 36°46' E 003°05'1 0.1
2015-Jun-21 21:33N 36°46' E 003°07'5 0.3
2015-Jun-21 04:33N 36°51' E 003°03'1311.1
2015-Jun-21 03:25N 36°54' E 002°48'1111.8
2015-Jun-21 02:31N 36°52' E 002°35'1312.4
2015-Jun-21 01:29N 36°50' E 002°19'1112.2
2015-Jun-21 00:33N 36°49' E 002°05'1212.1
2015-Jun-20 23:33N 36°48' E 001°50'1312.4
2015-Jun-20 22:28N 36°47' E 001°33'1111.8
2015-Jun-20 21:33N 36°46' E 001°20'1211.9
2015-Jun-20 20:33N 36°45' E 001°05'1211.7
2015-Jun-20 19:33N 36°41' E 000°51'1211.8
2015-Jun-20 18:33N 36°34' E 000°39'1211.8
2015-Jun-20 17:33N 36°27' E 000°27'1212.1
2015-Jun-20 16:33N 36°19' E 000°17'1211.8
2015-Jun-20 15:33N 36°10' E 000°07'1211.5
2015-Jun-20 14:33N 36°02' W 000°03'1111.1
2015-Jun-20 13:33N 35°53' W 000°12'4 0.1
2015-Jun-19 13:11N 35°51' W 000°16'6 7.8
2015-Jun-19 12:26N 35°55' W 000°11'1 1.0
2015-Jun-19 11:33N 35°56' W 000°11'4 3.0
2015-Jun-19 10:22N 35°59' W 000°10'4 2.1
2015-Jun-19 08:33N 36°03' W 000°10'2 0.2
2015-Jun-18 23:07N 36°05' W 000°09'3 5.6
2015-Jun-18 22:32N 36°03' W 000°13'  
Track history (hours):
 
Tides and Currents Weather Stations Pressure Air Temp Water Temp Dewpoint Dewpoint Depression Visibility Wind Speed Wind Dir Waves Ship Positions

Gaz Palmyra

Last reported at 2015-Jun-28 09:17 UTC. Time now 2015-Jul-01 23:15 UTC.
Position N 36°46' E 003°05'.

Length 137 m; draft 8.1 m.

Type: Ship (hazmat cat C). MMSI: 353247000.

Date/timePositionNaut miles runAvg speedWind from/ knotsBaromVisibWave heightAir tempDewpointWater temp
2015-Jun-28 09:17N 36°46' E 003°05'49 8.5
2015-Jun-28 03:28N 36°50' E 002°03'1112.0
2015-Jun-28 02:33N 36°48' E 001°50'1312.2
2015-Jun-28 01:30N 36°47' E 001°34'1111.8
2015-Jun-28 00:33N 36°46' E 001°20'1211.8
2015-Jun-27 23:33N 36°45' E 001°05'1212.1
2015-Jun-27 22:32N 36°41' E 000°51'1212.0
2015-Jun-27 21:33N 36°36' E 000°38'10 9.7
2015-Jun-27 20:33N 36°29' E 000°29'5 5.2
2015-Jun-27 19:33N 36°25' E 000°25'1211.9
2015-Jun-27 18:33N 36°16' E 000°15'1212.1
2015-Jun-27 17:33N 36°07' E 000°05'1211.6
2015-Jun-27 16:33N 35°58' W 000°04'1010.4
2015-Jun-27 15:33N 35°50' W 000°12'3 0.1
2015-Jun-26 15:33N 35°49' W 000°15'3 2.9
2015-Jun-26 14:34N 35°51' W 000°13'2 1.8
2015-Jun-26 13:33N 35°52' W 000°11'2 2.4
2015-Jun-26 12:33N 35°54' W 000°10'2 1.6
2015-Jun-26 11:33N 35°56' W 000°09'3 2.8
2015-Jun-26 10:33N 35°58' W 000°07'1 0.8
2015-Jun-26 09:33N 35°59' W 000°07'1 0.6
2015-Jun-26 08:33N 35°59' W 000°07'1 0.5
2015-Jun-26 07:24N 35°60' W 000°07'1 0.8
2015-Jun-26 06:33N 36°00' W 000°08'8 8.2
2015-Jun-26 05:32N 36°06' W 000°01'1010.6
2015-Jun-26 04:33N 36°13' E 000°09'1110.7
2015-Jun-26 03:34N 36°20' E 000°19'1110.6
2015-Jun-26 02:33N 36°28' E 000°28'1010.2
2015-Jun-26 01:33N 36°34' E 000°38'1010.5
2015-Jun-26 00:34N 36°39' E 000°49'1110.9
2015-Jun-25 23:33N 36°45' E 001°01'1111.3
2015-Jun-25 22:33N 36°46' E 001°15'1111.4
2015-Jun-25 21:33N 36°47' E 001°29'3611.0
2015-Jun-25 18:16N 36°50' E 002°14'2011.0
2015-Jun-25 16:27N 36°52' E 002°39'1210.6
2015-Jun-25 15:22N 36°53' E 002°53'  
2015-Jun-22 05:21N 36°46' E 003°05'1 0.1
2015-Jun-21 21:33N 36°46' E 003°07'5 0.3
2015-Jun-21 04:33N 36°51' E 003°03'1311.1
2015-Jun-21 03:25N 36°54' E 002°48'1111.8
2015-Jun-21 02:31N 36°52' E 002°35'1312.4
2015-Jun-21 01:29N 36°50' E 002°19'1112.2
2015-Jun-21 00:33N 36°49' E 002°05'1212.1
2015-Jun-20 23:33N 36°48' E 001°50'1312.4
2015-Jun-20 22:28N 36°47' E 001°33'1111.8
2015-Jun-20 21:33N 36°46' E 001°20'1211.9
2015-Jun-20 20:33N 36°45' E 001°05'1211.7
2015-Jun-20 19:33N 36°41' E 000°51'1211.8
2015-Jun-20 18:33N 36°34' E 000°39'1211.8
2015-Jun-20 17:33N 36°27' E 000°27'1212.1
2015-Jun-20 16:33N 36°19' E 000°17'1211.8
2015-Jun-20 15:33N 36°10' E 000°07'1211.5
2015-Jun-20 14:33N 36°02' W 000°03'1111.1
2015-Jun-20 13:33N 35°53' W 000°12'4 0.1
2015-Jun-19 13:11N 35°51' W 000°16'6 7.8
2015-Jun-19 12:26N 35°55' W 000°11'1 1.0
2015-Jun-19 11:33N 35°56' W 000°11'4 3.0
2015-Jun-19 10:22N 35°59' W 000°10'4 2.1
2015-Jun-19 08:33N 36°03' W 000°10'2 0.2
2015-Jun-18 23:07N 36°05' W 000°09'3 5.6
2015-Jun-18 22:32N 36°03' W 000°13'  

Dump ship's entire track history